Flight Track Log - Related Links

Times and Time Zones

All times are in EDT time to prevent confusion due to time zone crossing. See the FSR411 flight status page for this flight to view local times or setup timezone preferences in your user account.

Time Position Orientation Groundspeed Altitude Reporting Facility
EDT Latitude Longitude Course Direction KTS MPH feet Rate Location/Type
Thu 04:01:31 PM 42.4503 -83.0539 319° Northwest 177 204 4,000  Level Cleveland Center
Thu 04:02:32 PM 42.4525 -83.1469 272° West 257 296 6,900 1,721 Climbing Cleveland Center
Thu 04:03:33 PM 42.4481 -83.2508 267° West 270 311 7,500 1,512 Climbing Cleveland Center
Thu 04:04:35 PM 42.4331 -83.3486 258° West 292 336 10,000 1,918 Climbing Cleveland Center
Thu 04:05:35 PM 42.3931 -83.4567 243° Southwest 311 358 11,400 1,475 Climbing Cleveland Center
Thu 04:06:37 PM 42.3181 -83.5403 220° Southwest 396 456 13,000 780 Climbing Cleveland Center
Thu 04:07:38 PM 42.2106 -83.5828 196° South 412 474 13,000  Level Cleveland Center
Thu 04:09:03 PM 42.0547 -83.6428 196° South 424 488 13,000 538 Level Cleveland Center
Thu 04:10:03 PM 41.9450 -83.6878 197° South 424 488 14,300 2,500 Climbing Cleveland Center
Thu 04:11:03 PM 41.8292 -83.7322 196° South 424 488 18,000 3,700 Climbing Cleveland Center
Thu 04:12:03 PM 41.7153 -83.7822 198° South 429 494 21,700 3,400 Climbing Cleveland Center
Thu 04:13:03 PM 41.6367 -83.9033 229° Southwest 419 482 24,800 2,550 Climbing Cleveland Center
Thu 04:14:03 PM 41.5722 -84.0361 237° Southwest 413 475 26,800 1,440 Climbing Cleveland Center
Thu 04:15:08 PM 41.5083 -84.1647 236° Southwest 449 517 27,800 567 Climbing Chicago Center
Thu 04:16:10 PM 41.4347 -84.3075 236° Southwest 463 533 28,000 97 Climbing Chicago Center
Thu 04:17:12 PM 41.3667 -84.4931 244° Southwest 467 537 28,000  Level Chicago Center
Thu 04:18:14 PM 41.3156 -84.6511 247° West 464 534 28,000  Level Chicago Center
Thu 04:19:16 PM 41.2631 -84.8106 246° West 467 537 28,000  Level Chicago Center
Thu 04:20:18 PM 41.2097 -84.9703 246° West 472 543 28,000  Level Chicago Center
Thu 04:21:21 PM 41.1561 -85.1300 246° West 471 542 28,000  Level Chicago Center
Thu 04:22:23 PM 41.1011 -85.2886 245° Southwest 470 541 28,000  Level Chicago Center
Thu 04:23:25 PM 41.0489 -85.4469 246° West 469 540 28,000  Level Chicago Center
Thu 04:24:27 PM 40.9839 -85.6358 246° West 469 540 28,000  Level Chicago Center
Thu 04:25:29 PM 40.9294 -85.7942 246° West 471 542 28,000  Level Chicago Center
Thu 04:26:31 PM 40.8753 -85.9533 246° West 474 545 28,000  Level Chicago Center
Thu 04:27:33 PM 40.8214 -86.1122 246° West 475 547 28,000  Level Chicago Center
Thu 04:28:35 PM 40.7667 -86.2683 245° Southwest 471 542 28,000  Level Chicago Center
Thu 04:29:37 PM 40.7125 -86.4233 245° Southwest 468 539 28,000  Level Chicago Center
Thu 04:30:39 PM 40.6578 -86.5775 245° Southwest 459 528 28,000  Level Chicago Center
Thu 04:31:41 PM 40.5922 -86.7658 245° Southwest 473 544 28,000 -1,016 Level Chicago Center
Thu 04:32:43 PM 40.5381 -86.9169 245° Southwest 470 541 25,900 -1,440 Descending Chicago Center
Thu 04:33:46 PM 40.4869 -87.0589 245° Southwest 456 525 25,000 -816 Descending Chicago Center
Thu 04:34:48 PM 40.4375 -87.1917 244° Southwest 437 503 24,200 -1,694 Descending Chicago Center
Thu 04:35:50 PM 40.3908 -87.3208 245° Southwest 410 472 21,500 -3,339 Descending Chicago Center
Thu 04:36:52 PM 40.3394 -87.4656 245° Southwest 373 429 17,300 -3,968 Descending Chicago Center
Thu 04:37:54 PM 40.2978 -87.5828 245° Southwest 360 414 13,300 -3,048 Descending Chicago Center
Thu 04:38:56 PM 40.2558 -87.6942 244° Southwest 347 399 11,000 -1,113 Descending Chicago Center
Thu 04:39:58 PM 40.2206 -87.7875 244° Southwest 296 341 11,000 -774 Level Chicago Center
Thu 04:41:00 PM 40.1881 -87.8781 245° Southwest 258 297 9,400 -1,935 Descending Chicago Center
Thu 04:42:02 PM 40.1539 -87.9719 245° Southwest 265 305 7,000 -2,371 Descending Chicago Center
Thu 04:43:04 PM 40.1194 -88.0647 244° Southwest 274 315 4,500 -1,452 Descending Chicago Center
Thu 04:44:06 PM 40.0858 -88.1517 243° Southwest 274 315 4,000 -484 Descending Chicago Center
Thu 04:46:00 PM 40.0333 -88.2667 246° West  Level FlightAware Approximate
Thu 04:53:00 PM 40.0388 -88.2778 246° West  Level Estimated
Thu 04:54:00 PM 40.0388 -88.2778 246° West  Level Estimated
Thu 04:55:00 PM 40.0388 -88.2778 246° West  Level Estimated

Login

Don't have an account? Register now (free) for customized features, flight alerts, and more!